Bayard, Nebraska
Current Conditions -  °F | °C
As of 6:53 AM on Sunday 23 Nov 2014 (Local Time) from KBFF Reporting Station
Clear Clear  
Wind Chill: 18°   Ceiling: Unl
Heat Index: 26°   Visibility: 10mi
Dew Point: 19°   Wind: 8mph
Humidity: 75%   Direction: 300°WNW
Pressure: 29.74"   Gusts: NA
Location:  41.75°N, 103.32°W
Report Text: KBFF 231353Z AUTO 30007KT 10SM CLR M03/M07 A2974 RMK AO2 SLP089 T10331072
Loading
Personal Weather Stations






























Interactive Weather Map New forecast layout! Learn more

10-Day Weather Forecast

Advertisements
Track Severe Weather on mobile